เทศบาลนครลำปาง, ประเทศไทย

10:06 AM ICT วัน สิงหาคม 30, 2016 (GMT +0700)
Chiang Mai International | | Change Station

Elev 1030 ft 18.77 °N, 98.97 °E | Updated 36 minutes ago

Scattered Clouds
มีเมฆคลุมเป็นบางส่วน
82 ฟาเรนไฮน์
Feels Like 87 ฟาเรนไฮน์
N
6
ลม ความผันแปร ลม from ทางทิศใต้และทิศตะวันออกเฉียงใต้

วันนี้
High -- | Low -- ฟาเรนไฮน์
--% Chance of Precip.
Yesterday
High -- | Low -- ฟาเรนไฮน์
Precip. -- นิ้ว
ความดัน 29.86 นิ้ว
ทัศนวิสัย 6.2 ไมล์
เมฆ Few 2000 ft
มีเมฆคลุมเป็นบางส่วน 3500 ft
ดัชนีความร้อน 87 ฟาเรนไฮน์
อุณหภูมิที่อากาศอาจจับตัวเป็นหยาดน้ำค้าง 72 ฟาเรนไฮน์
ความชื้น 70%
Rainfall 0.00 นิ้ว
Snow Depth Not available.
6:07 AM 6:37 PM
เดือนเสี้ยว, 5% visible
METAR VTCC 300230Z 16005KT 9999 FEW020 SCT035 28/22 Q1011 A2987 NOSIG
ความดัน 29.86 นิ้ว
ทัศนวิสัย 6.2 ไมล์
เมฆ Few 2000 ft
มีเมฆคลุมเป็นบางส่วน 3500 ft
ดัชนีความร้อน 87 ฟาเรนไฮน์
อุณหภูมิที่อากาศอาจจับตัวเป็นหยาดน้ำค้าง 72 ฟาเรนไฮน์
ความชื้น 70%
Rainfall 0.00 นิ้ว
Snow Depth Not available.
6:07 AM 6:37 PM
เดือนเสี้ยว, 5% visible
METAR VTCC 300230Z 16005KT 9999 FEW020 SCT035 28/22 Q1011 A2987 NOSIG

10-Day Weather Forecast

No radar image for this location.
×

Almanac

ดาราศาสตร์

Aug. 30, 2016 Rise Set
Actual Time
Civil Twilight
Nautical Twilight
Astronomical Twilight
Moon
Length Of Visible Light
ความยาวของวัน
Tomorrow will be .
, % of the Moon is Illuminated

Today's Extremes

Country Highs Country Lows

Community

WunderPhotos

Upload Photos

1,935,752 photos uploaded!

WunderBlog® & News

Nearby

Air Quality

  Air Quality AQ Index Pollutant
Not available.

Snow Depth

Station Depth Elevation

Earthquake Activity

City Distance Mag. Time & Date
Minimum magnitude displayed is 2.5.

Coastal Water Temperatures

สถานที่ อุณหภูมิ

Stations

Nearby Weather Stations

Station Location Temp ลมหนาว อุณหภูมิที่อากาศอาจจับตัวเป็นหยาดน้ำค้าง ความชื้น ลม Precip. Elev ปรับปรุงล่าสุด Type